BCT weather

Boca Raton Airport
Boca Raton, Florida, United States

Public forecast

Using degrees Fahrenheit for public forecast. Weather courtesy of forecast.io.

METAR (pilot weather report)

Retrieved 2019/05/21 13:47 UTC (42 minutes ago):

KBCT 211347Z 12008KT 070V150 10SM SCT031 31/21 A2998

TAF (pilot weather forecast)

Closest forecast is Fort Lauderdale Executive Airport, 11.4 nm (21.1 km) SSW. Retrieved 2019/05/21 12:24 UTC (2 hours ago):

TAF KFXE 211121Z 2112/2212 VRB05KT P6SM SCT025 FM211500 10010KT P6SM SCT030 SCT060 FM220000 VRB02KT P6SM FEW025